Flight Track Log - Related Links

Times and Time Zones

All times are in EDT time to prevent confusion due to time zone crossing. See the UAL4093 flight status page for this flight to view local times or setup timezone preferences in your user account.

Time Position Orientation Groundspeed Altitude Reporting Facility
EDT Latitude Longitude Course Direction KTS MPH feet Rate Location/Type
Mon 12:16:42 AM 40.7167 -74.1500 37° Northeast 155 178 1,000  Level New York TRACON
Mon 12:17:42 AM 40.7500 -74.1167 37° Northeast 204 235 2,800 1,789 Climbing New York TRACON
Mon 12:18:36 AM 40.8000 -74.0667 37° Northeast 249 287 4,400 2,092 Climbing New York TRACON
Mon 12:20:14 AM 40.8836 -73.9528 46° Northeast 285 328 8,100 2,178 Climbing Boston Center
Mon 12:21:13 AM 40.9325 -73.8742 51° Northeast 279 321 10,100 1,400 Climbing Boston Center
Mon 12:22:14 AM 40.9878 -73.7847 51° Northeast 285 328 10,900 950 Climbing Boston Center
Mon 12:23:13 AM 41.0492 -73.6869 50° Northeast 324 373 12,000 1,109 Climbing Boston Center
Mon 12:24:13 AM 41.1025 -73.5942 53° Northeast 348 400 13,100 1,045 Climbing Boston Center
Mon 12:25:25 AM 41.1764 -73.4769 50° Northeast 365 420 14,300 1,209 Climbing Boston Center
Mon 12:26:27 AM 41.2547 -73.3486 51° Northeast 370 426 15,800 1,279 Climbing Boston Center
Mon 12:27:27 AM 41.3181 -73.2472 50° Northeast 376 433 16,900 1,008 Climbing Boston Center
Mon 12:28:26 AM 41.3917 -73.1208 52° Northeast 383 441 17,800 864 Climbing Boston Center
Mon 12:29:25 AM 41.4425 -73.0022 60° Northeast 398 458 18,600 650 Climbing Boston Center
Mon 12:30:26 AM 41.5014 -72.8669 60° Northeast 409 471 19,100 492 Climbing Boston Center
Mon 12:31:27 AM 41.5644 -72.7286 59° Northeast 422 486 19,600 744 Climbing Boston Center
Mon 12:32:27 AM 41.6272 -72.5817 60° Northeast 435 501 20,600 1,100 Climbing Boston Center
Mon 12:33:27 AM 41.6875 -72.4400 60° Northeast 440 506 21,800 1,169 Climbing Boston Center
Mon 12:34:25 AM 41.7481 -72.2956 61° Northeast 440 506 22,900 1,160 Climbing Boston Center
Mon 12:35:26 AM 41.8061 -72.1533 61° Northeast 440 506 24,100 1,160 Climbing Boston Center
Mon 12:36:24 AM 41.8681 -72.0081 60° Northeast 440 506 25,200 1,041 Climbing Boston Center
Mon 12:37:27 AM 41.9281 -71.8653 61° Northeast 440 506 26,200 992 Climbing Boston Center
Mon 12:38:25 AM 41.9875 -71.7250 60° Northeast 440 506 27,200 1,017 Climbing Boston Center
Mon 12:39:25 AM 42.0450 -71.5847 61° Northeast 440 506 28,200 958 Climbing Boston Center
Mon 12:40:24 AM 42.1083 -71.4439 59° Northeast 440 506 29,100 958 Climbing Boston Center
Mon 12:41:24 AM 42.1694 -71.2972 61° Northeast 440 506 30,100 992 Climbing Boston Center
Mon 12:42:25 AM 42.2283 -71.1531 61° Northeast 440 506 31,100 950 Climbing Boston Center
Mon 12:43:24 AM 42.2850 -71.0089 62° Northeast 440 506 32,000 908 Climbing Boston Center
Mon 12:44:24 AM 42.3456 -70.8586 61° Northeast 440 506 32,900 689 Climbing Boston Center
Mon 12:45:26 AM 42.4058 -70.7025 62° Northeast 445 512 33,400 492 Climbing Boston Center
Mon 12:46:26 AM 42.4681 -70.5431 62° Northeast 464 534 33,900 555 Climbing Boston Center
Mon 12:47:25 AM 42.5317 -70.3806 62° Northeast 475 547 34,500 550 Climbing Boston Center
Mon 12:48:26 AM 42.5953 -70.2147 62° Northeast 485 558 35,000 248 Climbing Boston Center
Mon 12:49:26 AM 42.6650 -70.0456 61° Northeast 491 565 35,000  Level Boston Center
Mon 12:50:26 AM 42.7339 -69.8678 62° Northeast 506 582 35,000  Level Boston Center
Mon 12:51:24 AM 42.8008 -69.6922 62° Northeast 512 589 35,000  Level Boston Center
Mon 12:52:24 AM 42.8750 -69.4992 62° Northeast 517 595 35,000  Level Boston Center
Mon 12:53:26 AM 42.9453 -69.3197 62° Northeast 523 602 35,000  Level Boston Center
Mon 12:54:26 AM 43.0092 -69.1406 64° Northeast 523 602 35,000  Level Boston Center
Mon 12:55:26 AM 43.0747 -68.9636 63° Northeast 523 602 35,000  Level Boston Center
Mon 12:56:26 AM 43.1344 -68.8064 62° Northeast 523 602 35,000  Level Boston Center
Mon 12:57:24 AM 43.1978 -68.6344 63° Northeast 512 589 35,000  Level Boston Center
Mon 12:58:25 AM 43.2547 -68.4714 64° Northeast 494 568 35,000 -50 Level Boston Center
Mon 12:59:25 AM 43.3136 -68.3075 64° Northeast 482 555 34,900  Descending Boston Center
Mon 01:00:26 AM 43.3761 -68.1406 63° Northeast 482 555 35,000 50 Climbing Boston Center
Mon 01:01:24 AM 43.4361 -67.9644 65° Northeast 487 560 35,000 -50 Level Boston Center
Mon 01:02:27 AM 43.4981 -67.7939 63° Northeast 492 566 34,900 -50 Descending Boston Center
Mon 01:03:25 AM 43.5578 -67.6231 64° Northeast 492 566 34,900  Level Boston Center
Mon 01:04:25 AM 43.6153 -67.4547 65° Northeast 487 560 34,900  Level Boston Center
Mon 01:05:26 AM 43.6706 -67.2950 64° Northeast 474 545 34,900  Level Boston Center
Mon 01:06:27 AM 43.7261 -67.1381 64° Northeast 463 533 34,900 48 Level Boston Center
Mon 01:07:32 AM 43.7667 -66.9500 73° East 460 529 35,000 48 Climbing Moncton Center
Mon 01:08:32 AM 43.8333 -66.7833 61° Northeast 470 541 35,000  Level Moncton Center
Mon 01:09:32 AM 43.9000 -66.6000 63° Northeast 480 552 35,000  Level Moncton Center
Mon 01:10:32 AM 43.9500 -66.4333 67° East 490 564 35,000  Level Moncton Center
Mon 01:11:32 AM 44.0000 -66.2833 65° Northeast 490 564 35,000  Level Moncton Center
Mon 01:12:32 AM 44.0500 -66.1000 69° East 470 541 35,000 -150 Level Moncton Center
Mon 01:13:32 AM 44.1167 -65.9333 61° Northeast 470 541 34,700 -950 Descending Moncton Center
Mon 01:14:32 AM 44.1667 -65.7667 67° East 470 541 33,100 -1,900 Descending Moncton Center
Mon 01:15:32 AM 44.2333 -65.6167 58° Northeast 480 552 30,900 -2,200 Descending Moncton Center
Mon 01:16:32 AM 44.2833 -65.4167 71° East 470 541 28,700 -2,050 Descending Moncton Center
Mon 01:17:32 AM 44.3333 -65.2667 65° Northeast 470 541 26,800 -2,000 Descending Moncton Center
Mon 01:18:32 AM 44.3833 -65.1000 67° East 460 529 24,700 -2,000 Descending Moncton Center
Mon 01:19:32 AM 44.4333 -64.9667 62° Northeast 440 506 22,800 -2,100 Descending Moncton Center
Mon 01:20:32 AM 44.4833 -64.8000 67° East 420 483 20,500 -2,250 Descending Moncton Center
Mon 01:21:32 AM 44.5167 -64.6500 73° East 420 483 18,300 -2,200 Descending Moncton Center
Mon 01:22:32 AM 44.5667 -64.5167 62° Northeast 400 460 16,100 -2,300 Descending Moncton Center
Mon 01:23:32 AM 44.6333 -64.4000 51° Northeast 380 437 13,700 -2,250 Descending Moncton Center
Mon 01:24:32 AM 44.6833 -64.2833 59° Northeast 350 403 11,600 -1,700 Descending Moncton Center
Mon 01:25:32 AM 44.7333 -64.1833 55° Northeast 310 357 10,300 -1,450 Descending Moncton Center
Mon 01:26:32 AM 44.7667 -64.0833 65° Northeast 280 322 8,700 -1,600 Descending Moncton Center
Mon 01:27:32 AM 44.8167 -64.0000 50° Northeast 270 311 7,100 -1,500 Descending Moncton Center
Mon 01:28:32 AM 44.8500 -63.9333 55° Northeast 260 299 5,700 -1,500 Descending Moncton Center
Mon 01:29:32 AM 44.8833 -63.8333 65° Northeast 250 288 4,100 -1,300 Descending Moncton Center
Mon 01:30:32 AM 44.9167 -63.7667 55° Northeast 230 265 3,100 -550 Descending Moncton Center
Mon 01:31:32 AM 44.9500 -63.6833 61° Northeast 210 242 3,000 -50 Descending Moncton Center
Mon 01:32:32 AM 44.9833 -63.6167 55° Northeast 200 230 3,000  Level Moncton Center
Mon 01:33:32 AM 45.0167 -63.5667 47° Northeast 210 242 3,000  Level Moncton Center
Mon 01:34:32 AM 45.0500 -63.5000 55° Northeast 210 242 3,000 -50 Level Moncton Center
Mon 01:35:32 AM 45.0833 -63.4333 55° Northeast 210 242 2,900 -300 Descending Moncton Center
Mon 01:36:32 AM 45.0500 -63.3500 119° Southeast 200 230 2,400 -250 Descending Moncton Center
Mon 01:37:32 AM 45.0000 -63.3500 180° South 190 219 2,400  Level Moncton Center
Mon 01:38:32 AM 44.9667 -63.4000 227° Southwest 190 219 2,400 -200 Level Moncton Center
Mon 01:39:32 AM 44.9333 -63.4333 215° Southwest 160 184 2,000 -600 Descending Moncton Center
Mon 01:40:32 AM 44.9000 -63.4833 227° Southwest 140 161 1,200 -750 Descending Moncton Center
Mon 01:41:32 AM 44.8667 -63.5000 200° South 140 161 500 -350 Descending Moncton Center
Mon 01:42:32 AM 44.8333 -63.5167 200° South 140 161 500  Level Moncton Center

Login

Don't have an account? Register now (free) for customized features, flight alerts, and more!